createdAt,value
2023-05-10T00:11:48.012Z,99.2
2023-05-10T00:31:48.016Z,99
2023-05-10T00:51:47.960Z,99
2023-05-10T01:11:47.904Z,98.9
2023-05-10T01:51:47.821Z,98.4
2023-05-10T02:11:47.773Z,97.1
2023-05-10T02:31:47.845Z,97.5
2023-05-10T02:51:47.739Z,97.9
2023-05-10T03:11:47.704Z,98.4
2023-05-10T03:31:47.749Z,98.8
2023-05-10T04:11:47.567Z,99.1
2023-05-10T04:31:47.517Z,99.1
2023-05-10T04:51:47.542Z,99.2
2023-05-10T05:11:47.442Z,99.3
2023-05-10T05:31:47.463Z,99.3
2023-05-10T05:51:47.366Z,99.2
2023-05-10T06:11:47.337Z,99
2023-05-10T06:31:47.427Z,98.5
2023-05-10T06:51:47.261Z,97.4
2023-05-10T07:11:47.230Z,96.2
2023-05-10T07:31:47.209Z,94.2
2023-05-10T07:51:47.147Z,93.6
2023-05-10T08:11:47.130Z,88.5
2023-05-10T08:31:47.232Z,86.8
2023-05-10T08:51:47.040Z,86.8
2023-05-10T09:31:46.943Z,86.7
2023-05-10T09:51:46.913Z,79.2
2023-05-10T10:31:46.938Z,81
2023-05-10T10:51:46.799Z,92.1
2023-05-10T11:11:46.741Z,90
2023-05-10T11:31:46.730Z,90
2023-05-10T11:51:46.670Z,86.8
2023-05-10T12:11:46.640Z,78.9
2023-05-10T12:31:46.646Z,78.2
2023-05-10T12:51:46.562Z,80.8
2023-05-10T13:11:46.517Z,79.8
2023-05-10T13:31:46.649Z,78.7
2023-05-10T13:51:46.439Z,77.7
2023-05-10T14:31:46.372Z,67.1
2023-05-10T14:51:46.312Z,65.7
2023-05-10T15:11:46.250Z,62.9
2023-05-10T15:31:46.340Z,65.6
2023-05-10T15:51:46.190Z,69.7
2023-05-10T16:11:46.137Z,71.2
2023-05-10T16:31:46.143Z,70.5
2023-05-10T16:51:46.063Z,73.4
2023-05-10T17:31:46.001Z,75.9
2023-05-10T17:51:45.953Z,79
2023-05-10T18:11:45.922Z,84.7
2023-05-10T18:31:45.896Z,90.5
2023-05-10T18:51:45.817Z,94
2023-05-10T19:11:45.842Z,95.8
2023-05-10T19:31:45.742Z,96.7
2023-05-10T19:51:45.702Z,97.2
2023-05-10T20:11:45.673Z,97.6
2023-05-10T20:31:45.673Z,97.9
2023-05-10T20:51:45.593Z,98.1
2023-05-10T21:11:45.564Z,98.3
2023-05-10T21:31:45.590Z,98.5
2023-05-10T21:51:45.472Z,98.6
2023-05-10T22:11:45.571Z,98.7
2023-05-10T22:31:45.437Z,98.7
2023-05-10T22:51:45.378Z,98.7
2023-05-10T23:11:45.337Z,98.7
2023-05-10T23:31:45.518Z,98.7
2023-05-10T23:51:45.247Z,98.7
